Time;durP1;ratioP1;P1;durP2;ratioP2;P2;SDS_P1;SDS_P2;PMS_P1;PMS_P2;Temp;Humidity;BMP_temperature;BMP_pressure;BME280_temperature;BME280_humidity;BME280_pressure;Samples;Min_cycle;Max_cycle;Signal;HPM_P1;HPM_P2
2022/03/10 00:00:07;;;;;;;19.13;10.27;;;-3.80;99.90;;;;;;5036496;28;20468;-93
2022/03/10 00:02:36;;;;;;;18.27;9.60;;;-3.80;99.90;;;;;;5036551;28;20071;-92
2022/03/10 00:05:04;;;;;;;18.85;10.98;;;-3.80;99.90;;;;;;5036111;28;20576;-92
2022/03/10 00:07:31;;;;;;;19.83;10.60;;;-3.70;99.90;;;;;;5036040;28;20114;-93
2022/03/10 00:09:57;;;;;;;19.77;10.05;;;-3.60;99.90;;;;;;5035992;28;20488;-92
2022/03/10 00:12:24;;;;;;;20.58;10.32;;;-3.70;99.90;;;;;;5035996;28;20052;-92
2022/03/10 00:14:51;;;;;;;17.15;10.00;;;-3.70;99.90;;;;;;5036201;28;20049;-92
2022/03/10 00:17:18;;;;;;;16.10;9.63;;;-3.80;99.90;;;;;;5036404;28;20056;-92
2022/03/10 00:19:44;;;;;;;17.13;10.02;;;-3.80;99.90;;;;;;5036086;28;20045;-92
2022/03/10 00:22:11;;;;;;;17.75;9.98;;;-3.90;99.90;;;;;;5036057;28;20090;-92
2022/03/10 00:24:39;;;;;;;16.35;9.85;;;-4.00;99.90;;;;;;5036121;28;20075;-92
2022/03/10 00:27:06;;;;;;;16.00;9.77;;;-4.10;99.90;;;;;;5036414;28;20053;-92
2022/03/10 00:29:33;;;;;;;18.83;10.48;;;-4.10;99.90;;;;;;5036229;28;20147;-92
2022/03/10 00:32:01;;;;;;;20.50;11.23;;;-4.20;99.90;;;;;;5036157;28;20135;-91
2022/03/10 00:34:30;;;;;;;24.65;11.68;;;-4.20;99.90;;;;;;5036249;28;20041;-91
2022/03/10 00:36:56;;;;;;;20.30;10.77;;;-4.10;99.90;;;;;;5036379;28;20053;-92
2022/03/10 00:39:23;;;;;;;20.40;11.32;;;-4.20;99.90;;;;;;5036131;28;20049;-92
2022/03/10 00:41:50;;;;;;;21.83;11.35;;;-4.20;99.90;;;;;;5036772;28;20075;-91
2022/03/10 00:44:17;;;;;;;23.38;11.07;;;-4.20;99.90;;;;;;5036697;28;20099;-91
2022/03/10 00:46:43;;;;;;;18.70;9.63;;;-4.20;99.90;;;;;;5035969;28;20504;-91
2022/03/10 00:49:10;;;;;;;17.13;10.00;;;-4.30;99.90;;;;;;5036234;28;20048;-91
2022/03/10 00:51:37;;;;;;;18.27;10.27;;;-4.30;99.90;;;;;;5036405;28;20049;-91
2022/03/10 00:54:05;;;;;;;13.70;9.07;;;-4.20;99.90;;;;;;5036683;28;20049;-91
2022/03/10 00:56:32;;;;;;;20.65;9.43;;;-4.30;99.90;;;;;;5036247;28;20136;-91
2022/03/10 00:58:58;;;;;;;16.45;9.82;;;-4.30;99.90;;;;;;5039887;28;20049;-91
2022/03/10 01:01:25;;;;;;;19.88;10.90;;;-4.30;99.90;;;;;;5039844;28;20049;-91
2022/03/10 01:03:52;;;;;;;14.52;9.80;;;-4.20;99.90;;;;;;5039581;28;20079;-91
2022/03/10 01:06:19;;;;;;;23.38;10.32;;;-4.20;99.90;;;;;;5040040;28;20398;-91
2022/03/10 01:08:45;;;;;;;20.88;10.25;;;-4.10;99.90;;;;;;5039643;28;20056;-91
2022/03/10 01:11:12;;;;;;;27.52;10.20;;;-4.10;99.90;;;;;;5039237;28;20492;-90
2022/03/10 01:13:39;;;;;;;18.33;10.48;;;-4.10;99.90;;;;;;5039612;28;20063;-90
2022/03/10 01:16:06;;;;;;;18.67;10.38;;;-4.00;99.90;;;;;;5039548;28;20052;-91
2022/03/10 01:18:33;;;;;;;18.20;11.00;;;-4.00;99.90;;;;;;5039390;28;20098;-91
2022/03/10 01:20:59;;;;;;;15.00;9.18;;;-4.00;99.90;;;;;;5047646;28;20120;-90
2022/03/10 01:23:26;;;;;;;17.98;9.93;;;-4.00;99.90;;;;;;5042644;28;20071;-90
2022/03/10 01:25:53;;;;;;;17.50;10.85;;;-4.00;99.90;;;;;;5039097;28;20059;-90
2022/03/10 01:28:19;;;;;;;15.05;9.63;;;-4.10;99.90;;;;;;5039146;28;20059;-90
2022/03/10 01:30:46;;;;;;;15.05;9.70;;;-4.10;99.90;;;;;;5038581;28;20052;-90
2022/03/10 01:33:13;;;;;;;15.93;10.32;;;-4.10;99.90;;;;;;5039037;28;20621;-90
2022/03/10 01:35:39;;;;;;;18.83;10.73;;;-4.10;99.90;;;;;;5039328;28;20473;-90
2022/03/10 01:38:06;;;;;;;18.98;10.73;;;-4.20;99.90;;;;;;5038790;28;20132;-90
2022/03/10 01:40:33;;;;;;;17.30;9.93;;;-4.30;99.90;;;;;;5038759;28;20075;-90
2022/03/10 01:43:00;;;;;;;14.32;10.05;;;-4.30;99.90;;;;;;5038422;28;20420;-90
2022/03/10 01:45:28;;;;;;;17.15;9.43;;;-4.40;99.90;;;;;;5038890;28;20063;-90
2022/03/10 01:47:55;;;;;;;16.42;10.27;;;-4.50;99.90;;;;;;5038590;28;20067;-89
2022/03/10 01:50:21;;;;;;;21.02;9.88;;;-4.60;99.90;;;;;;5038769;28;20566;-90
2022/03/10 01:52:51;;;;;;;14.63;9.60;;;-4.60;99.90;;;;;;5038965;28;20072;-89
2022/03/10 01:55:19;;;;;;;14.55;10.07;;;-4.80;99.90;;;;;;5038750;28;20049;-89
2022/03/10 01:57:46;;;;;;;16.42;9.98;;;-4.80;99.90;;;;;;5038714;28;20059;-89
2022/03/10 02:00:14;;;;;;;17.02;10.38;;;-4.80;99.90;;;;;;5038059;28;20060;-89
2022/03/10 02:02:41;;;;;;;16.77;10.50;;;-4.80;99.90;;;;;;5038487;28;20049;-89
2022/03/10 02:05:09;;;;;;;17.50;10.60;;;-4.80;99.90;;;;;;5038459;28;20057;-89
2022/03/10 02:10:24;;;;;;;16.00;10.23;;;-4.80;99.90;;;;;;5055394;28;20408;-89
2022/03/10 02:12:52;;;;;;;19.55;11.10;;;-4.80;99.90;;;;;;5037741;28;20055;-88
2022/03/10 02:18:08;;;;;;;19.63;10.13;;;-4.80;99.90;;;;;;5055662;28;20045;-89
2022/03/10 02:20:36;;;;;;;23.38;10.50;;;-4.70;99.90;;;;;;5037700;28;20052;-89
2022/03/10 02:23:05;;;;;;;18.80;11.40;;;-4.70;99.90;;;;;;5037789;28;20045;-89
2022/03/10 02:25:33;;;;;;;19.70;10.75;;;-4.60;99.90;;;;;;5037846;28;20053;-89
2022/03/10 02:28:00;;;;;;;16.70;9.98;;;-4.60;99.90;;;;;;5038156;28;20057;-89
2022/03/10 02:30:30;;;;;;;17.13;10.43;;;-4.50;99.90;;;;;;5038096;28;20056;-89
2022/03/10 02:32:58;;;;;;;33.78;11.68;;;-4.50;99.90;;;;;;5038047;28;20049;-89
2022/03/10 02:35:26;;;;;;;18.10;10.05;;;-4.40;99.90;;;;;;5037885;28;20408;-89
2022/03/10 02:37:53;;;;;;;20.52;10.82;;;-4.50;99.90;;;;;;5037718;28;20052;-89
2022/03/10 02:40:20;;;;;;;19.83;10.30;;;-4.50;99.90;;;;;;5037740;28;20055;-89
2022/03/10 02:42:47;;;;;;;16.77;9.57;;;-4.50;99.90;;;;;;5037484;28;20148;-89
2022/03/10 02:45:14;;;;;;;16.10;10.23;;;-4.50;99.90;;;;;;5037787;28;20499;-89
2022/03/10 02:47:41;;;;;;;16.27;9.32;;;-4.60;99.90;;;;;;5037425;28;20128;-89
2022/03/10 02:50:09;;;;;;;19.05;10.68;;;-4.60;99.90;;;;;;5037626;28;20131;-89
2022/03/10 02:52:36;;;;;;;15.50;10.00;;;-4.70;99.90;;;;;;5037484;28;20494;-89
2022/03/10 02:55:08;;;;;;;15.80;10.40;;;-4.80;99.90;;;;;;5037502;28;20055;-89
2022/03/10 02:57:37;;;;;;;17.90;10.25;;;-4.90;99.90;;;;;;5037440;28;20053;-89
2022/03/10 03:00:06;;;;;;;18.35;9.88;;;-5.00;99.90;;;;;;5037210;28;20143;-89
2022/03/10 03:02:32;;;;;;;18.67;10.95;;;-5.00;99.90;;;;;;5036774;28;20152;-89
2022/03/10 03:04:59;;;;;;;16.10;10.50;;;-5.00;99.90;;;;;;5036899;28;20057;-88
2022/03/10 03:07:26;;;;;;;18.77;10.48;;;-5.10;99.90;;;;;;5036559;28;20052;-89
2022/03/10 03:09:53;;;;;;;19.88;11.27;;;-5.20;99.90;;;;;;5036714;28;20053;-88
2022/03/10 03:12:19;;;;;;;18.52;9.70;;;-5.20;99.90;;;;;;5036488;28;20186;-87
2022/03/10 03:14:46;;;;;;;15.27;10.20;;;-5.30;99.90;;;;;;5036743;28;20049;-88
2022/03/10 03:17:13;;;;;;;20.02;11.02;;;-5.30;99.90;;;;;;5036557;28;20049;-89
2022/03/10 03:19:40;;;;;;;19.05;11.00;;;-5.30;99.90;;;;;;5036050;28;20057;-88
2022/03/10 03:22:06;;;;;;;18.50;10.23;;;-5.30;99.90;;;;;;5036380;28;20476;-88
2022/03/10 03:24:33;;;;;;;17.50;10.82;;;-5.30;99.90;;;;;;5036201;28;20514;-88
2022/03/10 03:27:01;;;;;;;18.92;10.88;;;-5.40;99.90;;;;;;5036487;28;20052;-88
2022/03/10 03:29:27;;;;;;;19.60;11.07;;;-5.30;99.90;;;;;;5036204;28;20053;-88
2022/03/10 03:31:54;;;;;;;18.67;10.50;;;-5.30;99.90;;;;;;5036220;28;20053;-89
2022/03/10 03:34:21;;;;;;;23.25;11.60;;;-5.30;99.90;;;;;;5036647;28;20441;-89
2022/03/10 03:36:50;;;;;;;31.98;12.07;;;-5.30;99.90;;;;;;5036770;28;20049;-89
2022/03/10 03:39:16;;;;;;;19.10;11.35;;;-5.30;99.90;;;;;;5036596;28;20049;-88
2022/03/10 03:41:43;;;;;;;18.08;10.57;;;-5.20;99.90;;;;;;5036213;28;20057;-88
2022/03/10 03:44:10;;;;;;;24.25;12.27;;;-5.20;99.90;;;;;;5036200;28;20055;-89
2022/03/10 03:46:38;;;;;;;23.55;11.93;;;-5.10;99.90;;;;;;5037901;28;20140;-88
2022/03/10 03:49:09;;;;;;;25.63;12.13;;;-5.10;99.90;;;;;;5036882;28;20132;-88
2022/03/10 03:51:37;;;;;;;20.63;11.25;;;-5.10;99.90;;;;;;5035982;28;20493;-88
2022/03/10 03:54:05;;;;;;;26.70;12.52;;;-5.10;99.90;;;;;;5036120;28;20052;-89
2022/03/10 03:56:32;;;;;;;22.58;13.10;;;-5.20;99.90;;;;;;5035937;28;20056;-88
2022/03/10 03:58:59;;;;;;;25.05;10.98;;;-5.20;99.90;;;;;;5035849;28;20059;-88
2022/03/10 04:01:26;;;;;;;27.17;12.63;;;-5.30;99.90;;;;;;5035960;28;20061;-88
2022/03/10 04:03:54;;;;;;;21.70;12.75;;;-5.30;99.90;;;;;;5036296;28;20061;-88
2022/03/10 04:06:21;;;;;;;31.10;16.42;;;-5.40;99.90;;;;;;5036334;28;20045;-88
2022/03/10 04:08:48;;;;;;;33.92;18.83;;;-5.40;99.90;;;;;;5035751;28;20564;-88
2022/03/10 04:11:16;;;;;;;29.52;14.85;;;-5.40;99.90;;;;;;5035755;28;20041;-88
2022/03/10 04:13:43;;;;;;;25.02;13.45;;;-5.40;99.90;;;;;;5035678;28;20060;-88
2022/03/10 04:16:10;;;;;;;21.83;12.52;;;-5.50;99.90;;;;;;5036001;28;20128;-88
2022/03/10 04:18:37;;;;;;;27.33;13.05;;;-5.60;99.90;;;;;;5035968;28;20135;-87
2022/03/10 04:21:04;;;;;;;19.52;11.25;;;-5.70;99.90;;;;;;5036103;28;20135;-88
2022/03/10 04:23:31;;;;;;;21.38;11.48;;;-5.70;99.90;;;;;;5035725;28;20140;-88
2022/03/10 04:25:58;;;;;;;24.27;13.15;;;-5.70;99.90;;;;;;5035392;28;20045;-88
2022/03/10 04:28:25;;;;;;;24.50;13.15;;;-5.70;99.90;;;;;;5035672;28;20057;-88
2022/03/10 04:30:51;;;;;;;22.38;12.32;;;-5.80;99.90;;;;;;5035758;28;20051;-88
2022/03/10 04:33:21;;;;;;;22.13;12.25;;;-5.90;99.90;;;;;;5040227;28;20140;-88
2022/03/10 04:35:50;;;;;;;23.15;12.60;;;-5.90;99.90;;;;;;5039604;28;20136;-88
2022/03/10 04:38:17;;;;;;;26.95;12.57;;;-5.90;99.90;;;;;;5039332;28;20052;-88
2022/03/10 04:40:45;;;;;;;27.13;13.70;;;-5.80;99.90;;;;;;5039615;28;20053;-88
2022/03/10 04:43:12;;;;;;;24.40;12.30;;;-5.80;99.90;;;;;;5039494;28;20087;-88
2022/03/10 04:45:39;;;;;;;23.58;12.05;;;-5.80;99.90;;;;;;5039411;28;20507;-88
2022/03/10 04:48:06;;;;;;;24.38;12.95;;;-5.70;99.90;;;;;;5039212;28;20049;-88
2022/03/10 04:50:33;;;;;;;31.52;12.93;;;-5.70;99.90;;;;;;5039143;28;20059;-88
2022/03/10 04:53:00;;;;;;;23.83;12.23;;;-5.70;99.90;;;;;;5039229;28;20063;-88
2022/03/10 04:55:27;;;;;;;22.05;12.63;;;-5.70;99.90;;;;;;5039388;28;20049;-88
2022/03/10 04:57:53;;;;;;;22.50;13.32;;;-5.70;99.90;;;;;;5039229;28;20147;-88
2022/03/10 05:00:21;;;;;;;25.65;13.15;;;-5.60;99.90;;;;;;5056563;28;20045;-88
2022/03/10 05:02:48;;;;;;;23.27;12.82;;;-5.60;99.90;;;;;;5038899;28;20083;-88
2022/03/10 05:05:17;;;;;;;24.35;12.00;;;-5.70;99.90;;;;;;5056453;28;20045;-88
2022/03/10 05:07:44;;;;;;;24.50;13.40;;;-5.80;99.90;;;;;;5055968;28;20465;-88
2022/03/10 05:10:13;;;;;;;23.23;12.50;;;-5.80;99.90;;;;;;5056678;28;20047;-86
2022/03/10 05:12:53;;;;;;;27.75;13.60;;;-5.80;99.90;;;;;;5055912;28;20547;-89
2022/03/10 05:15:23;;;;;;;21.95;11.40;;;-5.90;99.90;;;;;;5038980;28;20481;-88
2022/03/10 05:17:50;;;;;;;23.08;11.57;;;-5.90;99.90;;;;;;5055052;28;20076;-88
2022/03/10 05:20:18;;;;;;;23.85;11.88;;;-5.90;99.90;;;;;;5038511;28;20061;-88
2022/03/10 05:22:50;;;;;;;24.73;12.43;;;-5.90;99.90;;;;;;5056248;28;20411;-88
2022/03/10 05:25:19;;;;;;;19.13;11.52;;;-5.70;99.90;;;;;;5038647;28;20140;-88
2022/03/10 05:27:46;;;;;;;22.88;12.05;;;-5.80;99.90;;;;;;5038910;28;20436;-89
2022/03/10 05:30:14;;;;;;;23.42;11.80;;;-5.80;99.90;;;;;;5038778;28;20386;-88
2022/03/10 05:32:41;;;;;;;18.05;11.75;;;-5.90;99.90;;;;;;5038503;28;20049;-88
2022/03/10 05:35:10;;;;;;;18.83;10.27;;;-5.90;99.90;;;;;;5056102;28;20050;-88
2022/03/10 05:37:40;;;;;;;16.90;10.40;;;-6.00;99.90;;;;;;5056162;28;20114;-88
2022/03/10 05:40:09;;;;;;;19.35;10.65;;;-6.00;99.90;;;;;;5056100;28;20129;-88
2022/03/10 05:42:41;;;;;;;24.95;12.35;;;-6.00;99.90;;;;;;5038189;28;20132;-88
2022/03/10 05:45:08;;;;;;;28.08;12.18;;;-6.00;99.90;;;;;;5038752;28;20057;-88
2022/03/10 05:47:36;;;;;;;32.13;12.88;;;-5.90;99.90;;;;;;5038173;28;20053;-88
2022/03/10 05:50:03;;;;;;;27.92;12.60;;;-5.90;99.90;;;;;;5038602;28;20178;-88
2022/03/10 05:52:31;;;;;;;35.35;15.70;;;-5.80;99.90;;;;;;5056043;28;20055;-88
2022/03/10 05:54:58;;;;;;;27.85;15.45;;;-5.80;99.90;;;;;;5054920;28;20051;-88
2022/03/10 05:57:25;;;;;;;30.55;16.15;;;-5.90;99.90;;;;;;5038145;28;20059;-89
2022/03/10 05:59:52;;;;;;;29.25;14.73;;;-5.80;99.90;;;;;;5037881;28;20067;-88
2022/03/10 06:02:19;;;;;;;24.75;15.45;;;-5.80;99.90;;;;;;5055040;28;20053;-89
2022/03/10 06:04:47;;;;;;;29.67;15.45;;;-5.80;99.90;;;;;;5055812;28;20045;-88
2022/03/10 06:07:14;;;;;;;27.13;14.35;;;-5.80;99.90;;;;;;5038126;28;20049;-88
2022/03/10 06:09:40;;;;;;;23.90;13.68;;;-5.70;99.90;;;;;;5038823;28;20108;-88
2022/03/10 06:12:09;;;;;;;27.50;14.52;;;-5.80;99.90;;;;;;5039752;28;20410;-88
2022/03/10 06:14:36;;;;;;;27.70;14.85;;;-5.70;99.90;;;;;;5037582;28;20052;-88
2022/03/10 06:17:03;;;;;;;30.23;15.90;;;-5.80;99.90;;;;;;5037590;28;20576;-88
2022/03/10 06:19:30;;;;;;;29.38;16.90;;;-5.80;99.90;;;;;;5037612;28;20053;-88
2022/03/10 06:21:57;;;;;;;27.45;14.45;;;-5.70;99.90;;;;;;5037762;28;20088;-88
2022/03/10 06:24:24;;;;;;;23.02;14.10;;;-5.60;99.90;;;;;;5037250;28;20485;-88
2022/03/10 06:26:51;;;;;;;24.63;13.82;;;-5.60;99.90;;;;;;5037485;28;20051;-88
2022/03/10 06:29:17;;;;;;;27.08;14.77;;;-5.60;99.90;;;;;;5055256;28;20080;-88
2022/03/10 06:31:44;;;;;;;29.33;13.60;;;-5.60;99.90;;;;;;5037252;28;20049;-89
2022/03/10 06:34:11;;;;;;;31.00;14.73;;;-5.60;99.90;;;;;;5037718;28;20059;-89
2022/03/10 06:36:38;;;;;;;33.28;13.85;;;-5.50;99.90;;;;;;5037693;28;20049;-87
2022/03/10 06:39:06;;;;;;;28.77;13.82;;;-5.40;99.90;;;;;;5037504;28;20055;-89
2022/03/10 06:41:33;;;;;;;35.55;14.82;;;-5.40;99.90;;;;;;5054490;28;20474;-89
2022/03/10 06:43:59;;;;;;;32.55;16.33;;;-5.40;99.90;;;;;;5037449;28;20067;-89
2022/03/10 06:46:26;;;;;;;42.47;22.50;;;-5.30;99.90;;;;;;5054735;28;20048;-89
2022/03/10 06:48:53;;;;;;;56.80;32.70;;;-5.30;99.90;;;;;;5037630;28;20076;-89
2022/03/10 06:51:20;;;;;;;47.00;20.63;;;-5.20;99.90;;;;;;5037345;28;20132;-89
2022/03/10 06:53:47;;;;;;;41.05;20.50;;;-5.10;99.90;;;;;;5037387;28;20045;-89
2022/03/10 06:56:16;;;;;;;39.53;20.83;;;-5.10;99.90;;;;;;5036474;28;20049;-89
2022/03/10 06:58:43;;;;;;;38.60;20.17;;;-5.00;99.90;;;;;;5037173;28;20051;-89
2022/03/10 07:01:10;;;;;;;37.28;19.40;;;-5.00;99.90;;;;;;5037169;28;20045;-89
2022/03/10 07:03:37;;;;;;;40.05;20.33;;;-4.90;99.90;;;;;;5037133;28;20484;-89
2022/03/10 07:06:04;;;;;;;42.63;18.80;;;-4.90;99.90;;;;;;5037043;28;20459;-90
2022/03/10 07:08:31;;;;;;;44.47;18.45;;;-4.80;99.90;;;;;;5036840;28;20065;-89
2022/03/10 07:10:57;;;;;;;36.83;18.75;;;-4.70;99.90;;;;;;5036867;28;20106;-89
2022/03/10 07:13:24;;;;;;;35.50;18.38;;;-4.70;99.90;;;;;;5053759;28;20045;-90
2022/03/10 07:15:54;;;;;;;46.15;18.45;;;-4.60;99.90;;;;;;5037443;28;20084;-90
2022/03/10 07:18:21;;;;;;;48.65;18.27;;;-4.60;99.90;;;;;;5036931;28;20045;-89
2022/03/10 07:20:48;;;;;;;35.78;15.77;;;-4.50;99.90;;;;;;5036866;28;20081;-89
2022/03/10 07:23:15;;;;;;;43.90;16.55;;;-4.50;99.90;;;;;;5036852;28;20052;-90
2022/03/10 07:25:43;;;;;;;42.13;18.65;;;-4.40;99.90;;;;;;5037095;28;20135;-91
2022/03/10 07:28:10;;;;;;;63.92;23.92;;;-3.90;99.90;;;;;;5037263;28;20045;-92
2022/03/10 07:30:37;;;;;;;57.58;25.25;;;-2.80;99.90;;;;;;5037617;28;20047;-94
2022/03/10 07:33:04;;;;;;;56.47;24.35;;;-1.70;99.90;;;;;;5038559;28;20052;-94
2022/03/10 07:35:30;;;;;;;54.97;21.83;;;-1.00;99.90;;;;;;5038223;28;20553;-95
2022/03/10 07:37:59;;;;;;;38.25;17.27;;;-0.50;99.90;;;;;;5038760;28;20062;-96
2022/03/10 07:40:27;;;;;;;37.33;13.40;;;0.00;99.90;;;;;;5039836;28;20481;-96
2022/03/10 07:42:54;;;;;;;35.05;10.77;;;1.00;99.90;;;;;;5042614;28;20148;-95
2022/03/10 07:45:22;;;;;;;28.15;8.20;;;1.50;99.90;;;;;;5048476;28;20121;-95
2022/03/10 07:47:49;;;;;;;18.35;7.70;;;2.00;99.90;;;;;;5050414;28;20049;-95
2022/03/10 07:50:17;;;;;;;18.17;6.60;;;2.60;99.90;;;;;;5041917;28;20060;-95
2022/03/10 07:52:44;;;;;;;13.75;6.32;;;4.00;99.90;;;;;;5037686;28;20144;-93
2022/03/10 07:55:13;;;;;;;30.15;6.85;;;4.70;99.90;;;;;;5037423;28;20076;-93
2022/03/10 07:57:41;;;;;;;18.63;5.82;;;5.90;99.90;;;;;;5037098;28;20057;-92
2022/03/10 08:00:08;;;;;;;25.98;6.80;;;6.50;99.90;;;;;;5036567;28;20076;-92
2022/03/10 08:02:36;;;;;;;29.55;6.68;;;7.10;99.90;;;;;;5037196;28;20095;-90
2022/03/10 08:05:07;;;;;;;23.08;6.25;;;7.80;98.60;;;;;;5037136;28;20045;-91
2022/03/10 08:07:34;;;;;;;19.23;5.78;;;8.90;93.70;;;;;;5035862;28;20140;-90
2022/03/10 08:10:03;;;;;;;17.63;5.65;;;8.70;92.90;;;;;;5035922;28;20056;-89
2022/03/10 08:12:32;;;;;;;13.07;5.65;;;8.60;91.60;;;;;;5053363;28;20623;-89
2022/03/10 08:15:01;;;;;;;13.77;5.50;;;9.40;89.60;;;;;;5035517;28;20045;-89
2022/03/10 08:17:28;;;;;;;15.43;5.90;;;10.10;82.80;;;;;;5035507;28;20053;-89
2022/03/10 08:19:55;;;;;;;14.45;5.68;;;10.90;79.90;;;;;;5035538;28;20504;-88
2022/03/10 08:22:24;;;;;;;19.17;6.75;;;11.30;79.20;;;;;;5036258;28;20053;-88
2022/03/10 08:24:51;;;;;;;28.55;7.30;;;11.10;78.10;;;;;;5035872;28;20045;-89
2022/03/10 08:27:18;;;;;;;18.08;6.38;;;11.10;78.70;;;;;;5035663;28;20069;-88
2022/03/10 08:29:45;;;;;;;31.08;6.68;;;10.80;76.90;;;;;;5035799;28;20412;-88
2022/03/10 08:32:13;;;;;;;17.55;5.68;;;11.50;76.70;;;;;;5053120;28;20052;-88
2022/03/10 08:34:40;;;;;;;16.98;6.32;;;11.80;73.80;;;;;;5035528;28;20045;-88
2022/03/10 08:37:07;;;;;;;17.40;5.80;;;12.10;74.50;;;;;;5035944;28;20053;-89
2022/03/10 08:39:34;;;;;;;23.40;5.85;;;12.70;71.40;;;;;;5053099;28;20138;-89
2022/03/10 08:42:01;;;;;;;28.88;6.10;;;13.60;67.50;;;;;;5035623;28;20051;-88
2022/03/10 08:44:28;;;;;;;20.90;6.63;;;13.80;64.90;;;;;;5052614;28;20056;-88
2022/03/10 08:46:55;;;;;;;21.63;6.68;;;13.60;63.00;;;;;;5034601;28;20053;-87
2022/03/10 08:49:23;;;;;;;25.98;6.70;;;13.30;64.40;;;;;;5035322;28;20140;-88
2022/03/10 08:51:50;;;;;;;32.63;6.18;;;13.90;63.50;;;;;;5052675;28;20048;-88
2022/03/10 08:54:19;;;;;;;25.75;6.80;;;14.50;62.50;;;;;;5035745;28;20049;-88
2022/03/10 08:56:46;;;;;;;23.92;5.72;;;15.70;60.10;;;;;;5052864;28;20107;-88
2022/03/10 08:59:13;;;;;;;19.73;5.43;;;16.20;59.00;;;;;;5035486;28;20045;-87
2022/03/10 09:01:40;;;;;;;20.75;5.95;;;16.20;57.90;;;;;;5035141;28;20048;-88
2022/03/10 09:04:08;;;;;;;17.55;5.55;;;16.60;57.60;;;;;;5035473;28;20409;-88
2022/03/10 09:06:35;;;;;;;10.35;5.75;;;16.90;56.50;;;;;;5035228;28;20045;-88
2022/03/10 09:09:03;;;;;;;13.10;5.28;;;17.60;55.80;;;;;;5035062;28;20059;-88
2022/03/10 09:11:30;;;;;;;12.90;5.40;;;17.70;54.60;;;;;;5034917;28;20152;-88
2022/03/10 09:13:59;;;;;;;18.08;4.70;;;17.60;54.40;;;;;;5034246;28;20053;-88
2022/03/10 09:16:26;;;;;;;12.93;5.63;;;17.80;54.50;;;;;;5052471;28;20477;-89
2022/03/10 09:18:53;;;;;;;11.77;5.30;;;19.90;52.80;;;;;;5053913;28;20049;-89
2022/03/10 09:21:20;;;;;;;18.23;9.43;;;19.80;51.20;;;;;;5038621;28;20515;-88
2022/03/10 09:23:47;;;;;;;21.70;13.82;;;20.00;51.00;;;;;;5038879;28;20115;-88
2022/03/10 09:26:15;;;;;;;14.93;7.55;;;19.40;51.20;;;;;;5038602;28;20334;-88
2022/03/10 09:28:43;;;;;;;37.05;27.55;;;18.60;52.40;;;;;;5038724;28;20471;-88
2022/03/10 09:31:15;;;;;;;56.38;28.25;;;18.00;51.40;;;;;;5056252;28;20052;-89
2022/03/10 09:33:44;;;;;;;14.48;7.05;;;16.90;54.00;;;;;;5038630;28;20084;-89
2022/03/10 09:36:11;;;;;;;13.30;9.00;;;15.80;56.30;;;;;;5038650;28;20044;-87
2022/03/10 09:38:38;;;;;;;24.55;17.80;;;16.40;56.80;;;;;;5056149;28;20063;-88
2022/03/10 09:41:04;;;;;;;9.20;5.85;;;17.10;55.80;;;;;;5038282;28;20059;-88
2022/03/10 09:43:35;;;;;;;10.73;5.40;;;18.30;54.70;;;;;;5055883;28;20393;-89
2022/03/10 09:46:02;;;;;;;11.55;5.75;;;20.00;52.90;;;;;;5038734;28;20128;-89
2022/03/10 09:48:30;;;;;;;19.77;7.57;;;19.40;52.20;;;;;;5038706;28;20071;-88
2022/03/10 09:50:57;;;;;;;19.70;8.88;;;21.00;50.10;;;;;;5038303;28;20045;-88
2022/03/10 09:53:27;;;;;;;14.68;6.47;;;19.90;50.50;;;;;;5038429;28;20138;-89
2022/03/10 09:55:54;;;;;;;11.18;5.72;;;20.10;50.30;;;;;;5055801;28;20140;-88
2022/03/10 09:58:21;;;;;;;10.80;5.55;;;20.70;51.00;;;;;;5038465;28;20160;-87
2022/03/10 10:00:48;;;;;;;9.20;5.72;;;20.90;50.20;;;;;;5055993;28;20076;-89
2022/03/10 10:03:15;;;;;;;10.77;6.30;;;22.50;47.80;;;;;;5038019;28;20106;-89
2022/03/10 10:05:43;;;;;;;13.65;6.07;;;24.20;45.50;;;;;;5038290;28;20049;-89
2022/03/10 10:08:17;;;;;;;10.70;5.55;;;24.30;45.30;;;;;;5037962;28;20048;-89
2022/03/10 10:10:47;;;;;;;13.73;5.82;;;24.30;45.80;;;;;;5055461;28;20199;-89
2022/03/10 10:13:27;;;;;;;11.18;6.40;;;23.70;44.60;;;;;;5037656;28;20044;-89
2022/03/10 10:16:03;;;;;;;14.50;6.82;;;22.20;44.60;;;;;;5038064;28;20140;-88
2022/03/10 10:18:31;;;;;;;17.40;6.95;;;21.80;45.80;;;;;;5055202;28;20045;-89
2022/03/10 10:21:12;;;;;;;10.65;6.97;;;22.30;47.10;;;;;;5039612;28;20053;-89
2022/03/10 10:23:40;;;;;;;8.80;5.72;;;22.20;46.10;;;;;;5037645;28;20049;-89
2022/03/10 10:26:09;;;;;;;10.45;6.57;;;22.90;46.40;;;;;;5038135;28;20140;-90
2022/03/10 10:28:41;;;;;;;7.35;6.28;;;23.90;45.40;;;;;;5037758;28;20091;-88
2022/03/10 10:31:10;;;;;;;15.65;6.68;;;24.50;43.80;;;;;;5037461;28;20049;-88
2022/03/10 10:33:39;;;;;;;13.98;8.10;;;25.60;43.60;;;;;;5037504;28;20102;-89
2022/03/10 10:36:13;;;;;;;10.30;7.95;;;24.70;42.20;;;;;;5037315;28;20051;-88
2022/03/10 10:38:42;;;;;;;10.15;7.38;;;22.20;43.40;;;;;;5037280;28;20044;-88
2022/03/10 10:41:21;;;;;;;7.40;6.55;;;22.70;45.20;;;;;;5054710;28;20459;-88
2022/03/10 10:43:52;;;;;;;14.48;7.70;;;22.60;45.00;;;;;;5037255;28;20395;-89
2022/03/10 10:46:23;;;;;;;14.50;7.40;;;22.80;45.10;;;;;;5037282;28;20044;-88
2022/03/10 10:48:53;;;;;;;;;;;21.70;44.90;;;;;;5038098;28;20049;-88
2022/03/10 10:51:33;;;;;;;12.05;7.03;;;21.90;45.30;;;;;;5037128;28;20011;-89
2022/03/10 10:54:03;;;;;;;17.05;6.75;;;24.30;43.00;;;;;;5037104;28;20092;-88
2022/03/10 10:56:30;;;;;;;13.73;8.15;;;24.40;41.10;;;;;;5037124;28;20408;-89
2022/03/10 10:58:58;;;;;;;11.50;8.05;;;23.50;42.20;;;;;;5037170;28;20048;-88
2022/03/10 11:01:33;;;;;;;15.23;7.65;;;21.40;44.50;;;;;;5054395;28;20240;-89
2022/03/10 11:04:03;;;;;;;19.25;7.65;;;21.90;45.80;;;;;;5054364;28;20110;-89
2022/03/10 11:06:31;;;;;;;9.75;7.13;;;23.70;44.60;;;;;;5036575;28;20542;-89
2022/03/10 11:08:58;;;;;;;11.70;8.18;;;25.60;41.60;;;;;;5036670;28;20057;-88
2022/03/10 11:11:26;;;;;;;16.40;8.48;;;22.80;43.40;;;;;;5053899;28;20045;-89
2022/03/10 11:13:53;;;;;;;8.85;7.72;;;22.10;45.40;;;;;;5036924;28;20067;-89
2022/03/10 11:16:20;;;;;;;11.10;7.65;;;21.40;46.10;;;;;;5036510;28;20139;-89
2022/03/10 11:18:52;;;;;;;9.95;7.97;;;22.20;45.80;;;;;;5054208;28;20083;-88
2022/03/10 11:21:45;;;;;;;12.43;7.90;;;23.50;43.90;;;;;;5053968;28;20080;-90
2022/03/10 11:24:40;;;;;;;15.48;8.43;;;24.40;43.00;;;;;;5036847;28;20049;-89
2022/03/10 11:27:13;;;;;;;9.80;8.02;;;24.30;43.40;;;;;;5053947;28;20049;-89
2022/03/10 11:29:41;;;;;;;13.70;8.05;;;24.10;43.00;;;;;;5036450;28;20059;-89
2022/03/10 11:32:11;;;;;;;11.50;8.18;;;24.40;42.20;;;;;;5053675;28;20409;-89
2022/03/10 11:34:48;;;;;;;13.70;7.80;;;23.90;43.10;;;;;;5036591;28;20127;-88
2022/03/10 11:37:37;;;;;;;12.25;7.38;;;22.70;41.80;;;;;;5036315;28;20052;-88
2022/03/10 11:40:38;;;;;;;11.93;5.82;;;22.40;42.90;;;;;;5036824;28;20053;-88
2022/03/10 11:43:08;;;;;;;5.20;4.72;;;22.30;40.00;;;;;;5036510;28;20139;-89
2022/03/10 11:45:35;;;;;;;8.05;5.05;;;22.00;40.60;;;;;;5036069;28;20452;-90
2022/03/10 11:48:28;;;;;;;6.88;4.82;;;22.00;40.40;;;;;;5036199;28;20103;-89
2022/03/10 11:50:55;;;;;;;6.03;4.57;;;21.70;40.60;;;;;;5035877;28;20041;-89
2022/03/10 11:53:22;;;;;;;7.25;4.53;;;22.30;39.80;;;;;;5053633;28;20053;-89
2022/03/10 11:55:51;;;;;;;9.95;4.50;;;24.10;39.40;;;;;;5035924;28;20055;-89
2022/03/10 11:58:20;;;;;;;7.28;4.60;;;24.20;37.40;;;;;;5036148;28;20492;-89
2022/03/10 12:00:51;;;;;;;4.40;4.10;;;23.80;37.40;;;;;;5035608;28;20057;-88
2022/03/10 12:03:24;;;;;;;4.32;3.92;;;22.40;37.10;;;;;;5037070;28;20140;-89
2022/03/10 12:05:55;;;;;;;4.35;3.90;;;21.50;38.90;;;;;;5036080;28;20051;-88
2022/03/10 12:08:24;;;;;;;7.35;4.57;;;22.50;38.50;;;;;;5035971;28;20041;-89
2022/03/10 12:10:51;;;;;;;6.78;4.45;;;22.70;38.10;;;;;;5036045;28;20090;-89
2022/03/10 12:13:24;;;;;;;8.15;4.00;;;22.50;38.00;;;;;;5035831;28;20159;-88
2022/03/10 12:15:52;;;;;;;7.60;4.40;;;21.70;37.20;;;;;;5036631;28;20136;-87
2022/03/10 12:18:23;;;;;;;5.07;3.95;;;21.90;38.30;;;;;;5036603;28;20051;-89
2022/03/10 12:20:54;;;;;;;4.32;4.03;;;21.60;38.20;;;;;;5035913;28;20143;-86
2022/03/10 12:23:25;;;;;;;4.32;3.92;;;21.00;37.90;;;;;;5035859;28;20064;-88
2022/03/10 12:26:06;;;;;;;5.30;4.18;;;20.50;39.60;;;;;;5035563;28;20056;-90
2022/03/10 12:28:38;;;;;;;4.72;3.90;;;21.70;39.90;;;;;;5053202;28;20045;-89
2022/03/10 12:31:21;;;;;;;6.18;4.32;;;22.10;38.20;;;;;;5035464;28;20152;-89
2022/03/10 12:33:57;;;;;;;4.82;4.10;;;22.20;38.50;;;;;;5052896;28;20140;-89
2022/03/10 12:36:25;;;;;;;5.50;4.60;;;20.90;39.90;;;;;;5052597;28;20147;-89
2022/03/10 12:38:52;;;;;;;4.90;4.50;;;20.40;40.60;;;;;;5053258;28;20411;-89
2022/03/10 12:41:19;;;;;;;4.53;4.13;;;20.00;41.60;;;;;;5035621;28;20055;-89
2022/03/10 12:43:56;;;;;;;4.45;4.00;;;19.50;42.60;;;;;;5035413;28;20053;-89